Time;durP1;ratioP1;P1;durP2;ratioP2;P2;SDS_P1;SDS_P2;PMS_P1;PMS_P2;Temp;Humidity;BMP_temperature;BMP_pressure;BME280_temperature;BME280_humidity;BME280_pressure;Samples;Min_cycle;Max_cycle;Signal;HPM_P1;HPM_P2
2022/05/20 00:02:02;;;;;;;2.95;1.90;;;20.60;62.80;;;19.82;63.33;96660.09;4874717;28;20740;-68
2022/05/20 00:04:28;;;;;;;5.30;1.95;;;20.60;62.70;;;19.80;63.62;96656.88;4831767;28;20492;-66
2022/05/20 00:06:54;;;;;;;2.63;1.52;;;20.60;62.50;;;19.76;63.47;96661.06;4869419;28;20390;-66
2022/05/20 00:09:20;;;;;;;6.53;2.08;;;20.60;63.00;;;19.74;64.59;96668.47;4870111;28;20212;-66
2022/05/20 00:11:46;;;;;;;3.45;1.90;;;20.50;63.10;;;19.72;63.70;96671.38;4864498;28;20924;-66
2022/05/20 00:14:12;;;;;;;3.45;1.58;;;20.50;63.30;;;19.70;64.44;96672.66;4857784;28;20361;-66
2022/05/20 00:16:38;;;;;;;4.95;2.15;;;20.50;63.40;;;19.68;65.17;96670.19;4858913;28;20559;-66
2022/05/20 00:19:05;;;;;;;4.07;1.83;;;20.50;63.60;;;19.67;64.33;96668.56;4884359;28;20208;-66
2022/05/20 00:21:32;;;;;;;5.20;1.77;;;20.50;63.80;;;19.66;65.56;96668.81;4853362;28;20234;-67
2022/05/20 00:23:58;;;;;;;5.88;2.28;;;20.40;64.50;;;19.60;65.00;96683.09;4858492;28;20333;-67
2022/05/20 00:26:24;;;;;;;7.25;2.10;;;20.20;65.40;;;19.53;66.04;96688.53;4882990;28;20361;-66
2022/05/20 00:28:50;;;;;;;3.92;2.05;;;20.20;65.80;;;19.47;65.96;96679.59;4880108;28;20200;-66
2022/05/20 00:31:16;;;;;;;5.53;1.90;;;20.20;66.10;;;19.41;67.06;96674.34;4845952;28;20448;-67
2022/05/20 00:33:42;;;;;;;3.70;2.38;;;20.10;66.40;;;19.37;66.49;96674.00;4856704;28;20331;-66
2022/05/20 00:36:08;;;;;;;5.10;2.08;;;20.10;66.40;;;19.35;67.66;96681.41;4868214;28;20308;-67
2022/05/20 00:38:35;;;;;;;9.05;2.13;;;20.10;66.60;;;19.33;66.77;96680.84;4875392;28;20260;-66
2022/05/20 00:41:01;;;;;;;5.80;2.42;;;20.10;66.60;;;19.29;66.99;96693.00;4881504;28;20492;-66
2022/05/20 00:43:29;;;;;;;4.93;2.28;;;20.10;66.70;;;19.25;67.36;96697.19;4849923;28;20449;-66
2022/05/20 00:46:02;;;;;;;3.25;2.00;;;20.00;66.60;;;19.19;68.88;96692.75;4899091;28;20366;-67
2022/05/20 00:48:28;;;;;;;5.93;2.13;;;20.00;66.80;;;19.17;68.47;96692.16;4864223;28;20202;-66
2022/05/20 00:51:20;;;;;;;4.00;2.20;;;20.00;67.00;;;19.14;69.75;96680.09;4866116;28;20324;-66
2022/05/20 00:54:11;;;;;;;6.97;2.13;;;19.90;67.10;;;19.10;69.80;96678.13;4867988;28;20804;-66
2022/05/20 00:56:41;;;;;;;6.28;2.45;;;19.80;67.40;;;19.06;69.43;96677.78;4836933;28;20331;-66
2022/05/20 00:59:10;;;;;;;7.38;2.40;;;19.90;67.30;;;19.04;69.35;96673.72;4876039;28;20301;-66
2022/05/20 01:01:36;;;;;;;3.70;2.53;;;19.80;67.60;;;19.01;68.79;96663.47;4857610;28;20323;-66
2022/05/20 01:04:02;;;;;;;4.65;2.55;;;19.80;67.70;;;18.96;68.55;96670.31;4871411;28;20574;-66
2022/05/20 01:06:28;;;;;;;4.50;2.63;;;19.70;68.00;;;18.95;69.66;96671.34;4869860;28;20368;-66
2022/05/20 01:08:54;;;;;;;4.97;2.40;;;19.80;67.90;;;18.94;69.77;96667.06;4863567;28;20397;-66
2022/05/20 01:11:20;;;;;;;3.80;2.28;;;19.80;68.20;;;18.90;69.16;96663.22;4857382;28;20256;-66
2022/05/20 01:13:49;;;;;;;4.15;2.67;;;19.70;67.90;;;18.89;69.20;96661.59;4854838;28;20502;-66
2022/05/20 01:16:15;;;;;;;4.25;2.40;;;19.70;67.90;;;18.90;69.21;96662.41;4870896;28;20353;-66
2022/05/20 01:18:43;;;;;;;4.97;2.53;;;19.70;68.10;;;18.88;69.48;96654.66;4869921;28;20325;-66
2022/05/20 01:21:08;;;;;;;4.55;2.47;;;19.70;68.50;;;18.86;69.68;96662.06;4868713;28;20308;-67
2022/05/20 01:23:35;;;;;;;3.90;2.33;;;19.60;68.60;;;18.84;70.65;96658.81;4867430;28;20401;-66
2022/05/20 01:26:01;;;;;;;6.32;2.60;;;19.60;68.80;;;18.83;69.91;96651.84;4896650;28;20301;-66
2022/05/20 01:28:29;;;;;;;5.90;2.50;;;19.60;68.80;;;18.82;71.25;96649.41;4864061;28;20403;-66
2022/05/20 01:31:10;;;;;;;5.05;2.60;;;19.60;68.80;;;18.83;71.21;96651.84;4872022;28;20755;-66
2022/05/20 01:33:42;;;;;;;6.80;2.40;;;19.70;68.70;;;18.81;70.69;96659.28;4876833;28;20307;-66
2022/05/20 01:36:18;;;;;;;5.57;2.25;;;19.60;68.80;;;18.80;72.01;96659.50;4870563;28;20733;-66
2022/05/20 01:38:44;;;;;;;4.68;2.70;;;19.70;68.80;;;18.75;70.49;96654.81;4871702;28;20630;-66
2022/05/20 01:41:14;;;;;;;4.97;2.60;;;19.60;69.10;;;18.75;71.71;96654.81;4857703;28;20388;-66
2022/05/20 01:44:04;;;;;;;5.05;2.55;;;19.60;69.20;;;18.75;71.69;96649.50;4869078;28;20402;-67
2022/05/20 01:46:41;;;;;;;3.37;2.50;;;19.60;69.40;;;18.74;72.05;96647.06;4881247;28;20320;-66
2022/05/20 01:49:19;;;;;;;4.90;2.50;;;19.60;69.40;;;18.72;71.96;96636.63;4872567;28;20326;-66
2022/05/20 01:52:24;;;;;;;4.88;2.63;;;19.60;69.70;;;18.69;72.82;96628.28;4896577;28;20797;-67
2022/05/20 01:55:16;;;;;;;7.05;3.35;;;19.60;69.30;;;18.67;72.25;96623.19;4901339;28;20305;-66
2022/05/20 01:58:15;;;;;;;4.25;2.60;;;19.50;69.50;;;18.65;72.73;96622.59;4895377;28;20263;-66
2022/05/20 02:00:42;;;;;;;7.03;2.42;;;19.50;69.40;;;18.61;71.23;96613.41;4880324;28;20260;-66
2022/05/20 02:03:19;;;;;;;5.03;2.70;;;19.50;69.40;;;18.59;73.01;96612.81;4868972;28;20204;-66
2022/05/20 02:05:54;;;;;;;6.03;2.67;;;19.50;69.70;;;18.57;73.22;96609.56;4890380;28;20569;-66
2022/05/20 02:08:28;;;;;;;5.05;2.60;;;19.40;69.90;;;18.58;73.33;96605.88;4891075;28;20901;-66
2022/05/20 02:11:04;;;;;;;4.30;2.35;;;19.40;69.90;;;18.57;73.64;96607.72;4869103;28;20519;-66
2022/05/20 02:13:32;;;;;;;3.85;2.45;;;19.40;70.50;;;18.55;72.08;96603.63;4866326;28;20289;-66
2022/05/20 02:16:02;;;;;;;3.92;2.70;;;19.40;70.40;;;18.54;72.63;96608.16;4878086;28;20367;-67
2022/05/20 02:18:37;;;;;;;5.13;2.75;;;19.40;70.70;;;18.53;72.61;96613.69;4861480;28;20335;-66
2022/05/20 02:21:10;;;;;;;4.85;2.63;;;19.40;70.60;;;18.51;73.59;96611.25;4874126;28;20788;-66
2022/05/20 02:23:41;;;;;;;5.60;2.67;;;19.40;70.50;;;18.48;73.62;96610.91;4864249;28;20208;-66
2022/05/20 02:26:09;;;;;;;4.40;2.60;;;19.30;71.00;;;18.46;74.30;96608.47;4850459;28;20349;-66
2022/05/20 02:29:02;;;;;;;3.60;2.42;;;19.30;71.40;;;18.41;75.21;96604.88;4887179;28;20324;-66
2022/05/20 02:32:00;;;;;;;11.32;6.95;;;19.20;71.60;;;18.40;75.34;96601.41;4871534;28;20459;-67
2022/05/20 02:34:26;;;;;;;27.10;21.48;;;19.20;71.80;;;18.35;74.33;96598.59;4870895;28;21024;-66
2022/05/20 02:36:52;;;;;;;22.25;19.08;;;19.10;72.00;;;18.29;74.12;96605.63;4889301;28;20264;-65
2022/05/20 02:39:20;;;;;;;12.55;10.10;;;19.10;71.90;;;18.26;74.26;96599.94;4869697;28;20404;-66
2022/05/20 02:41:47;;;;;;;5.13;3.60;;;19.10;72.00;;;18.22;75.16;96596.91;4845267;28;20317;-66
2022/05/20 02:44:13;;;;;;;8.38;3.47;;;19.00;72.20;;;18.18;74.28;96602.91;4845222;28;20223;-66
2022/05/20 02:46:40;;;;;;;24.65;19.38;;;19.00;72.00;;;18.15;75.26;96598.84;4850296;28;20361;-65
2022/05/20 02:49:07;;;;;;;21.17;18.67;;;19.00;72.20;;;18.14;75.69;96599.88;4844215;28;20368;-66
2022/05/20 02:51:34;;;;;;;7.07;4.93;;;19.00;72.50;;;18.11;75.50;96604.84;4870105;28;20221;-67
2022/05/20 02:54:00;;;;;;;3.90;3.10;;;18.90;72.60;;;18.07;75.79;96599.13;4868526;28;20259;-66
2022/05/20 02:56:26;;;;;;;4.97;2.75;;;18.90;72.70;;;18.03;75.59;96597.97;4856542;28;20407;-66
2022/05/20 03:04:21;;;;;;;9.48;6.95;;;18.80;72.60;;;17.93;76.12;96603.00;4842686;28;21042;-66
2022/05/20 03:06:49;;;;;;;17.60;13.65;;;18.80;72.90;;;17.90;75.51;96598.94;4874505;28;20353;-65
2022/05/20 03:09:21;;;;;;;12.45;9.32;;;18.70;72.70;;;17.80;76.76;96587.19;4938179;28;20311;-65
2022/05/20 03:11:47;;;;;;;39.22;33.15;;;18.70;72.90;;;17.82;76.18;96601.06;4895373;28;20478;-66
2022/05/20 03:14:16;;;;;;;42.33;35.08;;;18.60;73.00;;;17.74;76.14;96600.34;4863251;28;20298;-66
2022/05/20 03:16:42;;;;;;;18.38;15.85;;;18.50;73.40;;;17.72;76.30;96605.09;4844408;28;20476;-66
2022/05/20 03:19:08;;;;;;;8.27;7.43;;;18.60;73.50;;;17.70;76.39;96601.84;4862631;28;20796;-67
2022/05/20 03:21:35;;;;;;;8.32;4.43;;;18.50;73.40;;;17.68;76.70;96605.75;4829397;28;20493;-66
2022/05/20 03:24:02;;;;;;;4.95;3.60;;;18.60;73.40;;;17.63;76.42;96609.03;4864861;28;20681;-66
2022/05/20 03:26:28;;;;;;;6.15;3.90;;;18.50;73.60;;;17.60;76.59;96606.81;4865781;28;20248;-67
2022/05/20 03:28:55;;;;;;;7.13;4.03;;;18.50;73.90;;;17.57;76.64;96607.25;4860176;28;20209;-67
2022/05/20 03:31:21;;;;;;;7.80;5.70;;;18.40;73.40;;;17.58;77.12;96602.75;4860056;28;20478;-67
2022/05/20 03:33:47;;;;;;;23.70;21.17;;;18.50;73.40;;;17.55;77.00;96596.03;4866773;28;20272;-67
2022/05/20 03:36:14;;;;;;;8.07;7.28;;;18.50;73.50;;;17.57;76.69;96604.59;4870675;28;20361;-66
2022/05/20 03:38:39;;;;;;;7.05;3.17;;;18.50;73.10;;;17.56;76.54;96602.97;4867499;28;20373;-67
2022/05/20 03:41:06;;;;;;;5.35;3.08;;;18.50;72.60;;;17.56;76.63;96599.50;4863222;28;20065;-67
2022/05/20 03:43:33;;;;;;;4.50;2.80;;;18.60;72.50;;;17.58;76.60;96605.41;4909481;28;20338;-67
2022/05/20 03:45:59;;;;;;;5.20;2.92;;;18.60;72.50;;;17.56;76.63;96610.94;4857199;28;20992;-67
2022/05/20 03:48:25;;;;;;;5.15;2.78;;;18.60;73.10;;;17.57;77.25;96614.41;4881142;28;20282;-67
2022/05/20 03:50:51;;;;;;;2.58;1.98;;;18.60;73.10;;;17.55;77.25;96606.66;4866736;28;20370;-67
2022/05/20 03:53:18;;;;;;;4.95;2.53;;;18.60;73.20;;;17.55;77.61;96611.97;4867372;28;20804;-66
2022/05/20 03:55:44;;;;;;;4.03;2.72;;;18.50;73.30;;;17.54;77.39;96610.34;4908289;28;20215;-72
2022/05/20 03:58:10;;;;;;;5.10;2.78;;;18.60;73.60;;;17.55;77.24;96609.31;4885577;28;20364;-73
2022/05/20 04:01:56;;;;;;;4.63;2.50;;;18.60;73.60;;;17.53;77.84;96614.06;4885461;28;20324;-72
2022/05/20 04:03:23;;;;;;;4.30;2.35;;;18.60;73.80;;;17.54;78.42;96610.34;4879883;28;20245;-65
2022/05/20 04:05:49;;;;;;;4.68;2.40;;;18.50;74.20;;;17.55;78.44;96611.16;4872357;28;20098;-65
2022/05/20 04:08:19;;;;;;;4.10;2.60;;;18.60;74.10;;;17.55;78.79;96617.28;4883782;28;20496;-67
2022/05/20 04:10:45;;;;;;;3.75;2.42;;;18.50;74.40;;;17.56;78.69;96616.25;4869493;28;20327;-67
2022/05/20 04:13:11;;;;;;;4.07;2.28;;;18.60;74.20;;;17.56;78.93;96624.25;4854335;28;20409;-67
2022/05/20 04:15:37;;;;;;;5.63;2.40;;;18.60;74.30;;;17.55;78.92;96621.81;4852533;28;20279;-66
2022/05/20 04:18:04;;;;;;;4.57;2.50;;;18.60;74.40;;;17.54;79.16;96615.66;4849119;28;20301;-67
2022/05/20 04:20:30;;;;;;;4.35;2.67;;;18.60;74.30;;;17.55;79.35;96617.28;4883460;28;20780;-66
2022/05/20 04:22:56;;;;;;;3.92;2.38;;;18.60;74.40;;;17.58;79.03;96611.53;4852285;28;20215;-67
2022/05/20 04:25:22;;;;;;;3.58;2.35;;;18.60;74.20;;;17.60;79.11;96619.28;4860856;28;20460;-68
2022/05/20 04:27:48;;;;;;;4.63;2.50;;;18.60;74.20;;;17.62;79.24;96617.22;4846568;28;20365;-66
2022/05/20 04:30:14;;;;;;;5.60;2.70;;;18.70;73.80;;;17.66;79.01;96618.44;4861288;28;20351;-66
2022/05/20 04:32:40;;;;;;;3.40;2.80;;;18.70;73.40;;;17.70;78.78;96625.78;4887520;28;20412;-67
2022/05/20 04:35:07;;;;;;;4.45;3.08;;;18.80;73.20;;;17.74;78.35;96626.97;4851288;28;20572;-66
2022/05/20 04:37:33;;;;;;;3.55;2.42;;;18.90;73.10;;;17.79;78.40;96628.94;4841022;28;20308;-66
2022/05/20 04:39:59;;;;;;;4.15;2.70;;;18.90;73.10;;;17.84;78.75;96630.94;4837187;28;20323;-66
2022/05/20 04:47:54;;;;;;;5.60;5.03;;;19.10;72.30;;;18.02;78.42;96636.28;4866996;28;20381;-67
2022/05/20 04:50:20;;;;;;;4.80;3.88;;;19.20;72.30;;;18.09;77.42;96634.34;4889317;28;20284;-67
2022/05/20 04:52:46;;;;;;;4.05;3.05;;;19.30;71.80;;;18.16;77.33;96627.09;4850886;28;20703;-68
2022/05/20 04:55:12;;;;;;;5.22;3.30;;;19.40;72.10;;;18.24;78.16;96629.44;4875953;28;20213;-69
2022/05/20 04:57:49;;;;;;;3.92;3.40;;;19.50;72.40;;;18.33;79.00;96630.78;4839176;28;20699;-69
2022/05/20 05:00:24;;;;;;;6.13;3.08;;;19.60;72.60;;;18.39;79.70;96633.59;4880530;28;20403;-68
2022/05/20 05:02:51;;;;;;;5.32;3.03;;;19.70;72.60;;;18.45;78.43;96632.69;4869565;28;20212;-66
2022/05/20 05:05:23;;;;;;;8.20;3.10;;;19.70;72.50;;;18.47;79.28;96627.94;4861277;28;20353;-70
2022/05/20 05:07:51;;;;;;;5.32;3.08;;;19.80;72.00;;;18.57;77.94;96636.22;4847314;28;20341;-66
2022/05/20 05:10:21;;;;;;;5.15;2.90;;;19.90;71.00;;;18.64;76.96;96634.28;4869805;28;20259;-69
2022/05/20 05:12:47;;;;;;;4.82;2.42;;;20.00;70.30;;;18.69;76.60;96631.75;4889779;28;20807;-72
2022/05/20 05:15:13;;;;;;;3.60;2.53;;;20.00;68.70;;;18.75;76.37;96630.84;4858308;28;20309;-69
2022/05/20 05:20:26;;;;;;;3.55;2.47;;;20.20;68.30;;;18.90;74.48;96636.56;4880182;28;20814;-67
2022/05/20 05:22:53;;;;;;;4.10;2.90;;;20.20;67.70;;;18.94;73.41;96629.72;4865602;28;20381;-67
2022/05/20 05:25:28;;;;;;;12.40;8.68;;;20.30;67.40;;;19.05;73.42;96632.66;4860485;28;20704;-69
2022/05/20 05:27:54;;;;;;;6.75;3.75;;;20.40;67.50;;;19.11;73.50;96627.22;4862334;28;20300;-68
2022/05/20 05:30:22;;;;;;;4.82;3.63;;;20.60;67.40;;;19.22;73.36;96629.06;4889228;28;20612;-65
2022/05/20 05:32:48;;;;;;;4.55;2.58;;;20.70;67.30;;;19.31;72.52;96624.25;4850611;28;20871;-64
2022/05/20 05:35:19;;;;;;;3.58;2.40;;;20.70;66.20;;;19.40;72.36;96625.50;4872436;28;20398;-65
2022/05/20 05:37:45;;;;;;;;;;;20.90;66.40;;;19.46;72.00;96623.75;4861218;28;20887;-64
2022/05/20 05:40:14;;;;;;;3.65;2.47;;;20.90;66.30;;;19.49;72.92;96612.66;4841003;28;20194;-68
2022/05/20 05:42:41;;;;;;;3.60;2.40;;;21.00;66.90;;;19.63;72.31;96623.91;4869541;28;20453;-67
2022/05/20 05:45:08;;;;;;;3.60;2.55;;;21.10;66.20;;;19.71;72.13;96624.38;4853934;28;20822;-67
2022/05/20 05:47:34;;;;;;;4.20;2.22;;;21.10;65.30;;;19.77;70.95;96619.97;4855402;28;20221;-66
2022/05/20 05:50:00;;;;;;;3.58;2.20;;;21.20;64.00;;;19.82;70.71;96623.53;4869665;28;20432;-64
2022/05/20 05:52:26;;;;;;;4.38;2.50;;;21.20;63.50;;;19.88;70.55;96619.13;4855529;28;20598;-67
2022/05/20 05:54:52;;;;;;;4.72;2.30;;;21.30;63.20;;;19.95;69.39;96619.81;4886832;28;20334;-64
2022/05/20 05:57:18;;;;;;;4.32;2.53;;;21.40;63.50;;;20.04;69.39;96621.06;4870367;28;20485;-67
2022/05/20 05:59:44;;;;;;;4.55;2.10;;;21.50;62.90;;;20.17;70.39;96617.34;4846669;28;20370;-64
2022/05/20 06:02:10;;;;;;;4.30;2.75;;;21.70;62.70;;;20.32;70.05;96622.97;4869964;28;20541;-63
2022/05/20 06:04:36;;;;;;;3.60;2.47;;;22.00;63.20;;;20.47;69.10;96630.50;4879385;28;20408;-63
2022/05/20 06:07:03;;;;;;;5.53;2.40;;;22.10;62.00;;;20.62;68.95;96628.13;4854995;28;20721;-63
2022/05/20 06:09:29;;;;;;;5.10;2.80;;;22.30;61.70;;;20.79;69.18;96628.94;4852583;28;20383;-64
2022/05/20 06:11:54;;;;;;;4.55;2.50;;;22.60;61.40;;;20.97;67.95;96619.09;4852943;28;20363;-64
2022/05/20 06:14:20;;;;;;;4.07;2.60;;;22.70;59.80;;;21.12;67.80;96627.38;4870520;28;20516;-68
2022/05/20 06:16:46;;;;;;;6.57;5.20;;;22.80;59.90;;;21.29;66.93;96630.09;4899911;28;20373;-65
2022/05/20 06:19:12;;;;;;;3.80;2.97;;;23.00;58.90;;;21.45;65.87;96623.09;4915189;28;20038;-65
2022/05/20 06:21:40;;;;;;;5.05;3.58;;;23.10;57.90;;;21.64;65.18;96619.09;4893683;28;20939;-65
2022/05/20 06:24:08;;;;;;;7.32;4.18;;;23.40;57.50;;;21.85;64.63;96621.00;4869230;28;20423;-68
2022/05/20 06:26:36;;;;;;;5.63;3.38;;;23.60;56.90;;;22.02;63.80;96619.09;4867352;28;20436;-63
2022/05/20 06:29:04;;;;;;;3.80;2.50;;;23.70;56.60;;;22.13;63.57;96619.25;4859198;28;20729;-65
2022/05/20 06:31:30;;;;;;;3.72;2.38;;;23.80;56.50;;;22.24;63.39;96613.78;4894179;28;20327;-67
2022/05/20 06:33:57;;;;;;;3.47;2.40;;;24.00;56.00;;;22.40;63.22;96621.97;4841159;28;20640;-67
2022/05/20 06:42:14;;;;;;;3.47;2.28;;;24.30;55.80;;;22.72;62.82;96624.75;4825649;28;20505;-66
2022/05/20 06:44:40;;;;;;;5.03;2.42;;;24.40;55.50;;;22.80;63.11;96624.28;4807492;29;20682;-67
2022/05/20 06:47:06;;;;;;;4.75;2.50;;;24.60;55.50;;;22.91;62.45;96618.00;4830431;28;20270;-68
2022/05/20 06:49:33;;;;;;;5.03;2.50;;;24.70;55.30;;;23.05;61.88;96613.81;4854678;28;20542;-67
2022/05/20 06:52:00;;;;;;;3.95;2.53;;;25.00;54.80;;;23.16;61.66;96610.16;4870741;28;20381;-64
2022/05/20 06:54:27;;;;;;;6.60;2.35;;;25.30;54.60;;;23.30;61.51;96615.88;4884131;28;20349;-69
2022/05/20 06:56:53;;;;;;;5.07;2.60;;;25.50;53.90;;;23.41;61.84;96611.44;4870314;28;20443;-69
2022/05/20 06:59:19;;;;;;;3.05;2.10;;;25.80;53.80;;;23.57;61.83;96613.19;4853971;28;20245;-67
2022/05/20 07:01:45;;;;;;;5.68;2.25;;;26.10;53.00;;;23.66;60.43;96603.56;4870128;28;20216;-67
2022/05/20 07:04:11;;;;;;;3.63;2.00;;;26.00;52.30;;;23.75;59.93;96606.56;4863272;28;20906;-63
2022/05/20 07:06:38;;;;;;;4.75;2.58;;;26.10;51.10;;;23.87;59.91;96606.38;4885196;28;20775;-67
2022/05/20 07:09:04;;;;;;;3.53;2.40;;;26.40;50.70;;;23.94;59.25;96604.25;4863344;28;20371;-68
2022/05/20 07:11:31;;;;;;;4.13;2.15;;;26.40;49.60;;;24.01;58.05;96594.09;4871305;28;20291;-65
2022/05/20 07:13:58;;;;;;;4.30;1.90;;;26.50;49.50;;;24.07;58.08;96595.72;4855935;28;20475;-68
2022/05/20 07:16:26;;;;;;;6.63;2.40;;;26.60;49.10;;;24.11;57.49;96594.13;4889216;28;20104;-67
2022/05/20 07:18:52;;;;;;;3.80;2.10;;;26.40;49.10;;;24.17;56.93;96587.69;4867356;28;20316;-64
2022/05/20 07:21:18;;;;;;;5.72;2.50;;;26.70;49.10;;;24.30;56.58;96591.81;4864978;28;20380;-64
2022/05/20 07:23:44;;;;;;;6.30;2.03;;;27.00;48.40;;;24.41;56.49;96593.44;4884092;28;20811;-66
2022/05/20 07:26:10;;;;;;;4.00;2.47;;;27.10;48.00;;;24.55;56.95;96596.44;4882371;28;20329;-64
2022/05/20 07:28:36;;;;;;;2.78;1.90;;;27.40;48.50;;;24.70;57.14;96593.78;4881930;28;20324;-62
2022/05/20 07:31:02;;;;;;;5.43;2.25;;;27.70;48.20;;;24.87;55.97;96594.34;4874366;28;20577;-65
2022/05/20 07:33:28;;;;;;;5.22;2.15;;;27.90;46.10;;;25.02;55.18;96589.00;4864805;28;20308;-62
2022/05/20 07:35:56;;;;;;;4.40;2.03;;;28.10;45.50;;;25.18;54.66;96597.09;4872825;28;20268;-63
2022/05/20 07:38:22;;;;;;;3.42;2.10;;;28.40;45.30;;;25.33;54.89;96594.38;4874908;28;20983;-63
2022/05/20 07:40:50;;;;;;;4.15;2.03;;;28.60;44.70;;;25.48;53.75;96591.66;4883039;28;20204;-65
2022/05/20 07:43:20;;;;;;;4.75;2.00;;;28.60;43.80;;;25.61;53.20;96585.75;4865292;28;20453;-64
2022/05/20 07:45:47;;;;;;;3.75;1.88;;;28.80;43.50;;;25.80;52.89;96588.69;4845810;28;20641;-65
2022/05/20 07:48:13;;;;;;;6.18;2.10;;;29.10;42.90;;;26.01;52.74;96588.59;4853473;28;20344;-67
2022/05/20 07:50:42;;;;;;;5.60;1.88;;;29.50;43.50;;;26.18;51.34;96583.69;4868369;28;20346;-64
2022/05/20 07:53:20;;;;;;;3.70;1.75;;;29.60;42.00;;;26.38;52.10;96585.53;4859335;28;20371;-63
2022/05/20 07:56:17;;;;;;;3.55;2.25;;;30.00;42.50;;;26.62;50.39;96589.16;4855219;28;20209;-65
2022/05/20 07:59:11;;;;;;;4.45;1.90;;;30.20;42.70;;;26.89;48.66;96593.31;4842041;28;20405;-64
2022/05/20 08:01:40;;;;;;;2.40;1.67;;;30.50;39.90;;;27.09;49.79;96587.78;4856497;28;20425;-64
2022/05/20 08:06:59;;;;;;;5.22;2.10;;;30.90;38.90;;;27.48;49.16;96582.31;4877156;28;20870;-65
2022/05/20 08:09:26;;;;;;;3.53;1.60;;;31.10;39.90;;;27.63;47.77;96573.28;4837222;28;20373;-68
2022/05/20 08:11:53;;;;;;;3.30;1.67;;;31.20;37.90;;;27.84;48.05;96574.69;4847691;28;20389;-66
2022/05/20 08:14:19;;;;;;;4.00;2.00;;;31.60;38.30;;;28.03;46.80;96567.41;4864954;28;20208;-71
2022/05/20 08:16:45;;;;;;;3.58;1.90;;;31.70;36.70;;;28.23;46.33;96568.25;4854621;28;20504;-69
2022/05/20 08:19:14;;;;;;;3.22;1.67;;;32.10;36.40;;;28.40;46.08;96567.81;4867600;28;20404;-71
2022/05/20 08:21:40;;;;;;;3.40;1.85;;;32.10;36.30;;;28.54;45.34;96561.38;4860415;28;20567;-68
2022/05/20 08:24:06;;;;;;;5.20;1.92;;;32.20;35.50;;;28.69;44.90;96560.34;4867994;28;20689;-68
2022/05/20 08:26:32;;;;;;;4.50;1.88;;;32.40;35.40;;;28.87;44.01;96562.28;4890366;28;20311;-68
2022/05/20 08:28:59;;;;;;;4.03;1.80;;;32.70;36.10;;;29.08;44.51;96557.34;4854313;28;20409;-70
2022/05/20 08:31:25;;;;;;;4.47;1.75;;;33.00;35.50;;;29.24;43.48;96550.56;4848374;28;20276;-67
2022/05/20 08:33:51;;;;;;;4.53;1.92;;;33.10;34.20;;;29.43;43.14;96549.72;4860883;28;20596;-69
2022/05/20 08:36:18;;;;;;;2.67;1.52;;;33.10;34.10;;;29.60;42.14;96547.25;4886287;28;20665;-67
2022/05/20 08:38:46;;;;;;;2.40;1.90;;;33.30;32.90;;;29.78;41.92;96542.84;4864845;28;20763;-71
2022/05/20 08:41:31;;;;;;;2.50;1.70;;;33.60;34.00;;;29.94;39.92;96540.63;4881401;28;20193;-67
2022/05/20 08:43:57;;;;;;;3.58;1.70;;;33.20;32.70;;;30.02;41.49;96529.06;4875430;28;20348;-68
2022/05/20 08:46:23;;;;;;;4.20;1.50;;;33.50;33.80;;;30.25;40.56;96522.63;4850476;28;20343;-71
2022/05/20 08:48:53;;;;;;;6.15;1.90;;;33.70;32.30;;;30.34;38.88;96523.53;4876828;28;20560;-67
2022/05/20 08:51:19;;;;;;;3.97;1.80;;;33.50;32.20;;;30.46;39.50;96531.94;4878731;28;20212;-67
2022/05/20 08:53:47;;;;;;;4.28;1.88;;;33.50;32.20;;;30.60;39.30;96526.47;4831250;28;20305;-68
2022/05/20 08:56:18;;;;;;;4.20;1.80;;;33.70;32.20;;;30.82;38.45;96523.00;4854161;28;20301;-67
2022/05/20 08:59:02;;;;;;;3.50;1.88;;;34.00;32.10;;;30.93;36.54;96521.63;4880275;28;20332;-66
2022/05/20 09:01:36;;;;;;;4.03;1.70;;;33.80;31.60;;;31.04;37.81;96525.72;4853192;28;20289;-66
2022/05/20 09:04:04;;;;;;;3.72;1.80;;;34.00;32.60;;;31.20;37.95;96528.06;4887637;28;20310;-66
2022/05/20 09:06:30;;;;;;;2.33;1.67;;;34.20;31.40;;;31.29;38.02;96521.59;4856486;28;20441;-65
2022/05/20 09:09:12;;;;;;;3.45;1.80;;;34.30;32.00;;;31.45;36.82;96519.25;4869142;28;20304;-65
2022/05/20 09:11:40;;;;;;;4.05;2.17;;;34.40;31.40;;;31.58;37.96;96523.81;4872094;28;20337;-67
2022/05/20 09:17:18;;;;;;;3.00;1.60;;;34.90;31.50;;;32.05;35.89;96516.00;4869028;28;20308;-62
2022/05/20 09:19:57;;;;;;;5.97;1.90;;;35.40;30.20;;;32.35;37.16;96516.22;4848051;28;20190;-66
2022/05/20 09:22:31;;;;;;;3.67;2.13;;;35.90;31.40;;;32.61;35.68;96508.09;4899890;28;20581;-66
2022/05/20 09:24:57;;;;;;;2.97;1.60;;;36.10;30.70;;;32.84;37.13;96506.84;4886773;28;20467;-67
2022/05/20 09:27:33;;;;;;;2.10;1.60;;;36.30;29.80;;;33.11;34.62;96502.94;4856408;28;20778;-66
2022/05/20 09:30:08;;;;;;;2.95;2.10;;;36.70;29.40;;;33.37;34.93;96505.63;4870404;28;20181;-64
2022/05/20 09:33:06;;;;;;;4.50;2.50;;;37.00;29.70;;;33.59;34.99;96497.22;4887877;28;20313;-68
2022/05/20 09:35:34;;;;;;;3.20;2.20;;;37.20;28.90;;;33.80;35.44;96491.81;4861380;28;20347;-64
2022/05/20 09:38:03;;;;;;;6.05;1.83;;;37.40;28.90;;;33.98;34.95;96492.56;4891435;28;20365;-65
2022/05/20 09:40:39;;;;;;;3.08;1.70;;;37.30;28.30;;;34.12;33.68;96481.38;4846130;28;20205;-66
2022/05/20 09:43:08;;;;;;;3.35;1.52;;;37.50;28.30;;;34.23;33.12;96477.16;4891607;28;20428;-65
2022/05/20 09:45:45;;;;;;;3.65;2.30;;;37.60;27.50;;;34.38;33.12;96473.84;4870343;28;20356;-64
2022/05/20 09:48:19;;;;;;;3.88;2.05;;;38.00;28.80;;;34.59;33.36;96469.16;4883872;28;20438;-70
2022/05/20 09:51:06;;;;;;;5.43;2.10;;;38.20;28.30;;;34.81;32.64;96469.94;4857592;28;20431;-65
2022/05/20 09:53:37;;;;;;;2.92;1.80;;;38.40;27.50;;;34.92;31.73;96466.50;4853636;28;20480;-65
2022/05/20 09:56:24;;;;;;;3.25;2.05;;;38.60;26.60;;;35.16;32.30;96460.28;4876005;28;20097;-64
2022/05/20 09:59:17;;;;;;;3.05;1.98;;;39.00;26.60;;;35.41;30.99;96450.22;4898406;28;20212;-68
2022/05/20 10:02:27;;;;;;;4.10;1.83;;;39.60;25.30;;;35.69;30.74;96455.81;4884807;28;20273;-64
2022/05/20 10:05:17;;;;;;;4.32;2.00;;;39.70;25.30;;;36.05;30.21;96446.00;4841447;28;20217;-63
2022/05/20 10:08:05;;;;;;;4.10;2.10;;;40.20;24.90;;;36.50;29.82;96446.59;4871093;28;20358;-68
2022/05/20 10:10:43;;;;;;;3.60;1.80;;;40.30;24.60;;;36.80;29.83;96440.78;4890438;28;20413;-72
2022/05/20 10:13:54;;;;;;;2.47;1.85;;;40.70;24.30;;;37.22;29.68;96437.59;4892290;28;20209;-72
2022/05/20 10:16:20;;;;;;;5.57;2.20;;;41.40;24.20;;;37.40;30.23;96438.88;4884362;28;20568;-66
2022/05/20 10:19:11;;;;;;;2.58;1.80;;;41.50;22.50;;;37.84;28.01;96441.53;4895830;28;20357;-66
2022/05/20 10:22:10;;;;;;;4.35;1.80;;;42.30;22.40;;;38.19;27.26;96428.59;4894944;28;20307;-67
2022/05/20 10:25:05;;;;;;;7.38;2.00;;;42.40;21.40;;;38.44;27.42;96426.38;4882859;28;20404;-67
2022/05/20 10:27:38;;;;;;;3.17;1.90;;;42.60;22.50;;;38.68;27.19;96416.25;4864524;28;20718;-68
2022/05/20 10:33:11;;;;;;;4.43;2.00;;;43.10;21.40;;;39.42;27.71;96409.38;4894275;28;20718;-65
2022/05/20 10:35:59;;;;;;;3.90;2.00;;;43.70;22.20;;;39.74;25.76;96412.66;4872634;28;20633;-65
2022/05/20 10:39:02;;;;;;;4.45;2.00;;;43.70;20.70;;;40.12;25.16;96404.56;4904394;28;20449;-66
2022/05/20 10:41:56;;;;;;;3.67;1.98;;;44.10;20.30;;;40.36;24.78;96395.81;4884530;28;20551;-66
2022/05/20 10:50:31;;;;;;;2.80;1.77;;;44.20;19.90;;;40.92;22.34;96383.88;4902709;28;20263;-65
2022/05/20 10:53:58;;;;;;;4.28;2.15;;;44.00;18.70;;;41.01;22.45;96376.09;4870217;28;20365;-66
2022/05/20 10:57:04;;;;;;;7.53;2.13;;;44.00;19.20;;;41.17;22.41;96373.84;4889008;28;20799;-65
2022/05/20 10:59:59;;;;;;;4.18;2.10;;;44.40;19.30;;;41.47;23.13;96365.47;4860786;28;20302;-65
2022/05/20 11:02:40;;;;;;;3.33;2.08;;;44.30;20.10;;;41.69;23.28;96371.97;4863400;28;20932;-67
2022/05/20 11:05:37;;;;;;;4.47;1.75;;;44.50;20.20;;;42.01;22.75;96365.81;4883031;28;20206;-67
2022/05/20 11:08:39;;;;;;;3.70;2.00;;;44.80;20.00;;;42.22;21.67;96365.94;4867035;28;20577;-66
2022/05/20 11:11:29;;;;;;;4.70;2.10;;;44.90;18.20;;;42.42;22.01;96364.44;4880282;28;20208;-67